sensor_id;sensor_type;location;lat;lon;timestamp;temperature;humidity
25983;DHT22;13773;48.868;10.730;2022-12-18T00:00:29;-8.10;99.90
25983;DHT22;13773;48.868;10.730;2022-12-18T00:02:55;-8.10;99.90
25983;DHT22;13773;48.868;10.730;2022-12-18T00:05:21;-8.20;99.90
25983;DHT22;13773;48.868;10.730;2022-12-18T00:07:47;-8.10;99.90
25983;DHT22;13773;48.868;10.730;2022-12-18T00:10:12;-8.10;99.90
25983;DHT22;13773;48.868;10.730;2022-12-18T00:12:38;-8.10;99.90
25983;DHT22;13773;48.868;10.730;2022-12-18T00:15:04;-8.10;99.90
25983;DHT22;13773;48.868;10.730;2022-12-18T00:17:30;-8.10;99.90
25983;DHT22;13773;48.868;10.730;2022-12-18T00:19:55;-8.10;99.90
25983;DHT22;13773;48.868;10.730;2022-12-18T00:22:21;-8.10;99.90
25983;DHT22;13773;48.868;10.730;2022-12-18T00:24:46;-8.20;99.90
25983;DHT22;13773;48.868;10.730;2022-12-18T00:27:12;-8.10;99.90
25983;DHT22;13773;48.868;10.730;2022-12-18T00:29:39;-8.10;99.90
25983;DHT22;13773;48.868;10.730;2022-12-18T00:32:05;-8.10;99.90
25983;DHT22;13773;48.868;10.730;2022-12-18T00:34:30;-8.10;99.90
25983;DHT22;13773;48.868;10.730;2022-12-18T00:36:56;-8.10;99.90
25983;DHT22;13773;48.868;10.730;2022-12-18T00:39:21;-8.20;99.90
25983;DHT22;13773;48.868;10.730;2022-12-18T00:41:47;-8.30;99.90
25983;DHT22;13773;48.868;10.730;2022-12-18T00:44:31;-8.30;99.90
25983;DHT22;13773;48.868;10.730;2022-12-18T00:46:57;-8.30;99.90
25983;DHT22;13773;48.868;10.730;2022-12-18T00:49:22;-8.40;99.90
25983;DHT22;13773;48.868;10.730;2022-12-18T00:51:48;-8.40;99.90
25983;DHT22;13773;48.868;10.730;2022-12-18T00:54:15;-8.40;99.90
25983;DHT22;13773;48.868;10.730;2022-12-18T00:56:41;-8.40;99.90
25983;DHT22;13773;48.868;10.730;2022-12-18T00:59:07;-8.50;99.90
25983;DHT22;13773;48.868;10.730;2022-12-18T01:01:33;-8.50;99.90
25983;DHT22;13773;48.868;10.730;2022-12-18T01:04:01;-8.40;99.90
25983;DHT22;13773;48.868;10.730;2022-12-18T01:06:26;-8.50;99.90
25983;DHT22;13773;48.868;10.730;2022-12-18T01:08:52;-8.50;99.90
25983;DHT22;13773;48.868;10.730;2022-12-18T01:11:20;-8.50;99.90
25983;DHT22;13773;48.868;10.730;2022-12-18T01:13:45;-8.60;99.90
25983;DHT22;13773;48.868;10.730;2022-12-18T01:16:12;-8.60;99.90
25983;DHT22;13773;48.868;10.730;2022-12-18T01:18:38;-8.60;99.90
25983;DHT22;13773;48.868;10.730;2022-12-18T01:21:12;-8.60;99.90
25983;DHT22;13773;48.868;10.730;2022-12-18T01:23:38;-8.60;99.90
25983;DHT22;13773;48.868;10.730;2022-12-18T01:26:09;-8.60;99.90
25983;DHT22;13773;48.868;10.730;2022-12-18T01:28:36;-8.60;99.90
25983;DHT22;13773;48.868;10.730;2022-12-18T01:31:24;-8.70;99.90
25983;DHT22;13773;48.868;10.730;2022-12-18T01:33:50;-8.70;99.90
25983;DHT22;13773;48.868;10.730;2022-12-18T01:36:19;-8.70;99.90
25983;DHT22;13773;48.868;10.730;2022-12-18T01:38:45;-8.70;99.90
25983;DHT22;13773;48.868;10.730;2022-12-18T01:41:11;-8.70;99.90
25983;DHT22;13773;48.868;10.730;2022-12-18T01:46:07;-8.60;99.90
25983;DHT22;13773;48.868;10.730;2022-12-18T01:48:32;-8.60;99.90
25983;DHT22;13773;48.868;10.730;2022-12-18T01:50:58;-8.70;99.90
25983;DHT22;13773;48.868;10.730;2022-12-18T01:53:25;-8.70;99.90
25983;DHT22;13773;48.868;10.730;2022-12-18T01:55:57;-8.70;99.90
25983;DHT22;13773;48.868;10.730;2022-12-18T01:58:32;-8.70;99.90
25983;DHT22;13773;48.868;10.730;2022-12-18T02:00:58;-8.70;99.90
25983;DHT22;13773;48.868;10.730;2022-12-18T02:03:26;-8.60;99.90
25983;DHT22;13773;48.868;10.730;2022-12-18T02:06:09;-8.70;99.90
25983;DHT22;13773;48.868;10.730;2022-12-18T02:11:58;-8.60;99.90
25983;DHT22;13773;48.868;10.730;2022-12-18T02:14:28;-8.60;99.90
25983;DHT22;13773;48.868;10.730;2022-12-18T02:17:11;-8.60;99.90
25983;DHT22;13773;48.868;10.730;2022-12-18T02:22:41;-8.60;99.90
25983;DHT22;13773;48.868;10.730;2022-12-18T02:27:53;-8.70;99.90
25983;DHT22;13773;48.868;10.730;2022-12-18T02:30:20;-8.70;99.90
25983;DHT22;13773;48.868;10.730;2022-12-18T02:32:50;-8.70;99.90
25983;DHT22;13773;48.868;10.730;2022-12-18T02:35:22;-8.70;99.90
25983;DHT22;13773;48.868;10.730;2022-12-18T02:37:49;-8.80;99.90
25983;DHT22;13773;48.868;10.730;2022-12-18T02:40:17;-8.70;99.90
25983;DHT22;13773;48.868;10.730;2022-12-18T02:42:43;-8.70;99.90
25983;DHT22;13773;48.868;10.730;2022-12-18T02:45:09;-8.70;99.90
25983;DHT22;13773;48.868;10.730;2022-12-18T02:47:42;-8.70;99.90
25983;DHT22;13773;48.868;10.730;2022-12-18T02:51:30;-8.70;99.90
25983;DHT22;13773;48.868;10.730;2022-12-18T02:53:43;-8.80;99.90
25983;DHT22;13773;48.868;10.730;2022-12-18T02:56:17;-8.80;99.90
25983;DHT22;13773;48.868;10.730;2022-12-18T02:58:49;-8.80;99.90
25983;DHT22;13773;48.868;10.730;2022-12-18T03:03:51;-8.80;99.90
25983;DHT22;13773;48.868;10.730;2022-12-18T03:06:25;-8.80;99.90
25983;DHT22;13773;48.868;10.730;2022-12-18T03:08:58;-8.80;99.90
25983;DHT22;13773;48.868;10.730;2022-12-18T03:11:25;-8.70;99.90
25983;DHT22;13773;48.868;10.730;2022-12-18T03:14:13;-8.60;99.90
25983;DHT22;13773;48.868;10.730;2022-12-18T03:16:41;-9.10;99.90
25983;DHT22;13773;48.868;10.730;2022-12-18T03:19:11;-8.50;99.90
25983;DHT22;13773;48.868;10.730;2022-12-18T03:21:42;-8.50;99.90
25983;DHT22;13773;48.868;10.730;2022-12-18T03:24:09;-8.60;99.90
25983;DHT22;13773;48.868;10.730;2022-12-18T03:26:42;-8.50;99.90
25983;DHT22;13773;48.868;10.730;2022-12-18T03:29:21;-8.40;99.90
25983;DHT22;13773;48.868;10.730;2022-12-18T03:31:53;-8.30;99.90
25983;DHT22;13773;48.868;10.730;2022-12-18T03:34:23;-8.30;99.90
25983;DHT22;13773;48.868;10.730;2022-12-18T03:36:50;-8.30;99.90
25983;DHT22;13773;48.868;10.730;2022-12-18T03:39:16;-8.20;99.90
25983;DHT22;13773;48.868;10.730;2022-12-18T03:47:20;-8.10;99.90
25983;DHT22;13773;48.868;10.730;2022-12-18T03:50:00;-8.10;99.90
25983;DHT22;13773;48.868;10.730;2022-12-18T03:52:36;-8.00;99.90
25983;DHT22;13773;48.868;10.730;2022-12-18T03:55:05;-8.00;99.90
25983;DHT22;13773;48.868;10.730;2022-12-18T03:57:32;-8.00;99.90
25983;DHT22;13773;48.868;10.730;2022-12-18T04:00:11;-7.90;99.90
25983;DHT22;13773;48.868;10.730;2022-12-18T04:02:38;-7.90;99.90
25983;DHT22;13773;48.868;10.730;2022-12-18T04:05:07;-7.90;99.90
25983;DHT22;13773;48.868;10.730;2022-12-18T04:07:34;-7.90;99.90
25983;DHT22;13773;48.868;10.730;2022-12-18T04:10:02;-7.90;99.90
25983;DHT22;13773;48.868;10.730;2022-12-18T04:12:29;-7.90;99.90
25983;DHT22;13773;48.868;10.730;2022-12-18T04:14:55;-7.90;99.90
25983;DHT22;13773;48.868;10.730;2022-12-18T04:17:21;-7.80;99.90
25983;DHT22;13773;48.868;10.730;2022-12-18T04:19:48;-7.80;99.90
25983;DHT22;13773;48.868;10.730;2022-12-18T04:22:14;-7.80;99.90
25983;DHT22;13773;48.868;10.730;2022-12-18T04:24:39;-7.70;99.90
25983;DHT22;13773;48.868;10.730;2022-12-18T04:27:06;-7.70;99.90
25983;DHT22;13773;48.868;10.730;2022-12-18T04:29:32;-7.70;99.90
25983;DHT22;13773;48.868;10.730;2022-12-18T04:31:57;-7.60;99.90
25983;DHT22;13773;48.868;10.730;2022-12-18T04:34:23;-7.70;99.90
25983;DHT22;13773;48.868;10.730;2022-12-18T04:36:49;-7.60;99.90
25983;DHT22;13773;48.868;10.730;2022-12-18T04:39:15;-7.50;99.90
25983;DHT22;13773;48.868;10.730;2022-12-18T04:41:40;-7.50;99.90
25983;DHT22;13773;48.868;10.730;2022-12-18T04:44:06;-7.50;99.90
25983;DHT22;13773;48.868;10.730;2022-12-18T04:46:32;-7.50;99.90
25983;DHT22;13773;48.868;10.730;2022-12-18T04:48:58;-7.50;99.90
25983;DHT22;13773;48.868;10.730;2022-12-18T04:51:23;-7.40;99.90
25983;DHT22;13773;48.868;10.730;2022-12-18T04:53:49;-7.40;99.90
25983;DHT22;13773;48.868;10.730;2022-12-18T04:56:15;-7.40;99.90
25983;DHT22;13773;48.868;10.730;2022-12-18T04:58:43;-7.40;99.90
25983;DHT22;13773;48.868;10.730;2022-12-18T05:01:11;-7.40;99.90
25983;DHT22;13773;48.868;10.730;2022-12-18T05:03:37;-7.40;99.90
25983;DHT22;13773;48.868;10.730;2022-12-18T05:06:04;-7.30;99.90
25983;DHT22;13773;48.868;10.730;2022-12-18T05:08:30;-7.30;99.90
25983;DHT22;13773;48.868;10.730;2022-12-18T05:11:00;-7.30;99.90
25983;DHT22;13773;48.868;10.730;2022-12-18T05:13:27;-7.30;99.90
25983;DHT22;13773;48.868;10.730;2022-12-18T05:15:54;-7.20;99.90
25983;DHT22;13773;48.868;10.730;2022-12-18T05:18:21;-7.00;99.90
25983;DHT22;13773;48.868;10.730;2022-12-18T05:20:46;-7.20;99.90
25983;DHT22;13773;48.868;10.730;2022-12-18T05:23:12;-7.20;99.90
25983;DHT22;13773;48.868;10.730;2022-12-18T05:25:38;-7.20;99.90
25983;DHT22;13773;48.868;10.730;2022-12-18T05:28:04;-7.10;99.90
25983;DHT22;13773;48.868;10.730;2022-12-18T05:30:29;-7.10;99.90
25983;DHT22;13773;48.868;10.730;2022-12-18T05:32:55;-7.10;99.90
25983;DHT22;13773;48.868;10.730;2022-12-18T05:35:21;-7.10;99.90
25983;DHT22;13773;48.868;10.730;2022-12-18T05:37:46;-7.10;99.90
25983;DHT22;13773;48.868;10.730;2022-12-18T05:40:12;-7.10;99.90
25983;DHT22;13773;48.868;10.730;2022-12-18T05:42:38;-7.00;99.90
25983;DHT22;13773;48.868;10.730;2022-12-18T05:45:05;-7.00;99.90
25983;DHT22;13773;48.868;10.730;2022-12-18T05:47:31;-7.10;99.90
25983;DHT22;13773;48.868;10.730;2022-12-18T05:49:56;-7.00;99.90
25983;DHT22;13773;48.868;10.730;2022-12-18T05:52:22;-7.00;99.90
25983;DHT22;13773;48.868;10.730;2022-12-18T05:54:48;-7.00;99.90
25983;DHT22;13773;48.868;10.730;2022-12-18T05:57:13;-6.90;99.90
25983;DHT22;13773;48.868;10.730;2022-12-18T05:59:39;-7.10;99.90
25983;DHT22;13773;48.868;10.730;2022-12-18T06:02:05;-7.00;99.90
25983;DHT22;13773;48.868;10.730;2022-12-18T06:04:31;-6.90;99.90
25983;DHT22;13773;48.868;10.730;2022-12-18T06:06:57;-6.90;99.90
25983;DHT22;13773;48.868;10.730;2022-12-18T06:09:23;-6.90;99.90
25983;DHT22;13773;48.868;10.730;2022-12-18T06:11:49;-6.90;99.90
25983;DHT22;13773;48.868;10.730;2022-12-18T06:14:16;-6.80;99.90
25983;DHT22;13773;48.868;10.730;2022-12-18T06:16:42;-6.80;99.90
25983;DHT22;13773;48.868;10.730;2022-12-18T06:19:12;-6.80;99.90
25983;DHT22;13773;48.868;10.730;2022-12-18T06:21:38;-6.80;99.90
25983;DHT22;13773;48.868;10.730;2022-12-18T06:24:04;-6.80;99.90
25983;DHT22;13773;48.868;10.730;2022-12-18T06:26:30;-6.70;99.90
25983;DHT22;13773;48.868;10.730;2022-12-18T06:28:56;-6.70;99.90
25983;DHT22;13773;48.868;10.730;2022-12-18T06:31:22;-6.70;99.90
25983;DHT22;13773;48.868;10.730;2022-12-18T06:33:47;-6.70;99.90
25983;DHT22;13773;48.868;10.730;2022-12-18T06:36:14;-6.70;99.90
25983;DHT22;13773;48.868;10.730;2022-12-18T06:38:41;-6.60;99.90
25983;DHT22;13773;48.868;10.730;2022-12-18T06:41:09;-6.60;99.90
25983;DHT22;13773;48.868;10.730;2022-12-18T06:43:35;-6.30;99.90
25983;DHT22;13773;48.868;10.730;2022-12-18T06:46:02;-6.60;99.90
25983;DHT22;13773;48.868;10.730;2022-12-18T06:48:28;-6.60;99.90
25983;DHT22;13773;48.868;10.730;2022-12-18T06:50:54;-6.60;99.90
25983;DHT22;13773;48.868;10.730;2022-12-18T06:53:20;-6.60;99.90
25983;DHT22;13773;48.868;10.730;2022-12-18T06:55:46;-6.60;99.90
25983;DHT22;13773;48.868;10.730;2022-12-18T06:58:12;-6.60;99.90
25983;DHT22;13773;48.868;10.730;2022-12-18T07:00:38;-6.50;99.90
25983;DHT22;13773;48.868;10.730;2022-12-18T07:03:03;-6.50;99.90
25983;DHT22;13773;48.868;10.730;2022-12-18T07:05:29;-6.50;99.90
25983;DHT22;13773;48.868;10.730;2022-12-18T07:07:55;-6.50;99.90
25983;DHT22;13773;48.868;10.730;2022-12-18T07:10:20;-6.40;99.90
25983;DHT22;13773;48.868;10.730;2022-12-18T07:12:46;-6.40;99.90
25983;DHT22;13773;48.868;10.730;2022-12-18T07:15:12;-6.40;99.90
25983;DHT22;13773;48.868;10.730;2022-12-18T07:17:37;-6.40;99.90
25983;DHT22;13773;48.868;10.730;2022-12-18T07:20:03;-6.30;99.90
25983;DHT22;13773;48.868;10.730;2022-12-18T07:22:29;-6.40;99.90
25983;DHT22;13773;48.868;10.730;2022-12-18T07:24:55;-6.30;99.90
25983;DHT22;13773;48.868;10.730;2022-12-18T07:27:21;-6.20;99.90
25983;DHT22;13773;48.868;10.730;2022-12-18T07:29:47;-6.30;99.90
25983;DHT22;13773;48.868;10.730;2022-12-18T07:32:12;-6.20;99.90
25983;DHT22;13773;48.868;10.730;2022-12-18T07:34:38;-6.00;99.90
25983;DHT22;13773;48.868;10.730;2022-12-18T07:37:04;-2.50;99.90
25983;DHT22;13773;48.868;10.730;2022-12-18T07:39:30;-6.00;99.90
25983;DHT22;13773;48.868;10.730;2022-12-18T07:41:55;-5.90;99.90
25983;DHT22;13773;48.868;10.730;2022-12-18T07:44:40;-5.80;99.90
25983;DHT22;13773;48.868;10.730;2022-12-18T07:47:05;-5.90;99.90
25983;DHT22;13773;48.868;10.730;2022-12-18T07:49:31;-5.80;99.90
25983;DHT22;13773;48.868;10.730;2022-12-18T07:51:57;-5.90;99.90
25983;DHT22;13773;48.868;10.730;2022-12-18T07:54:24;-5.90;99.90
25983;DHT22;13773;48.868;10.730;2022-12-18T07:56:51;-5.90;99.90
25983;DHT22;13773;48.868;10.730;2022-12-18T07:59:17;-5.80;99.90
25983;DHT22;13773;48.868;10.730;2022-12-18T08:01:43;-5.70;99.90
25983;DHT22;13773;48.868;10.730;2022-12-18T08:04:09;-5.70;99.90
25983;DHT22;13773;48.868;10.730;2022-12-18T08:06:35;-5.60;99.90
25983;DHT22;13773;48.868;10.730;2022-12-18T08:09:01;-5.60;99.90
25983;DHT22;13773;48.868;10.730;2022-12-18T08:11:27;-5.40;99.90
25983;DHT22;13773;48.868;10.730;2022-12-18T08:13:54;-5.60;99.90
25983;DHT22;13773;48.868;10.730;2022-12-18T08:16:21;-5.60;99.90
25983;DHT22;13773;48.868;10.730;2022-12-18T08:18:47;-5.50;99.90
25983;DHT22;13773;48.868;10.730;2022-12-18T08:21:16;-5.40;99.90
25983;DHT22;13773;48.868;10.730;2022-12-18T08:23:42;-5.40;99.90
25983;DHT22;13773;48.868;10.730;2022-12-18T08:26:12;-5.50;99.90
25983;DHT22;13773;48.868;10.730;2022-12-18T08:28:38;-5.40;99.90
25983;DHT22;13773;48.868;10.730;2022-12-18T08:31:05;-5.50;99.90
25983;DHT22;13773;48.868;10.730;2022-12-18T08:33:31;-5.40;99.90
25983;DHT22;13773;48.868;10.730;2022-12-18T08:36:01;-5.30;99.90
25983;DHT22;13773;48.868;10.730;2022-12-18T08:38:27;-5.30;99.90
25983;DHT22;13773;48.868;10.730;2022-12-18T08:41:00;-5.30;99.90
25983;DHT22;13773;48.868;10.730;2022-12-18T08:43:26;-5.30;99.90
25983;DHT22;13773;48.868;10.730;2022-12-18T08:46:11;-5.20;99.90
25983;DHT22;13773;48.868;10.730;2022-12-18T08:48:37;-5.40;99.90
25983;DHT22;13773;48.868;10.730;2022-12-18T08:51:03;-5.40;99.90
25983;DHT22;13773;48.868;10.730;2022-12-18T08:53:29;-5.30;99.90
25983;DHT22;13773;48.868;10.730;2022-12-18T08:55:56;-5.20;99.90
25983;DHT22;13773;48.868;10.730;2022-12-18T08:58:22;-5.10;99.90
25983;DHT22;13773;48.868;10.730;2022-12-18T09:00:48;-5.10;99.90
25983;DHT22;13773;48.868;10.730;2022-12-18T09:03:15;-5.20;99.90
25983;DHT22;13773;48.868;10.730;2022-12-18T09:05:41;-5.10;99.90
25983;DHT22;13773;48.868;10.730;2022-12-18T09:08:07;-5.50;99.90
25983;DHT22;13773;48.868;10.730;2022-12-18T09:10:33;-5.00;99.90
25983;DHT22;13773;48.868;10.730;2022-12-18T09:12:59;-5.30;99.90
25983;DHT22;13773;48.868;10.730;2022-12-18T09:15:24;-5.30;99.90
25983;DHT22;13773;48.868;10.730;2022-12-18T09:17:50;-5.20;99.90
25983;DHT22;13773;48.868;10.730;2022-12-18T09:20:18;-5.20;99.90
25983;DHT22;13773;48.868;10.730;2022-12-18T09:22:44;-5.20;99.90
25983;DHT22;13773;48.868;10.730;2022-12-18T09:25:10;-5.10;99.90
25983;DHT22;13773;48.868;10.730;2022-12-18T09:27:35;-5.00;99.90
25983;DHT22;13773;48.868;10.730;2022-12-18T09:30:01;-5.00;99.90
25983;DHT22;13773;48.868;10.730;2022-12-18T09:32:27;-5.00;99.90
25983;DHT22;13773;48.868;10.730;2022-12-18T09:34:53;-4.90;99.90
25983;DHT22;13773;48.868;10.730;2022-12-18T09:37:18;-4.80;99.90
25983;DHT22;13773;48.868;10.730;2022-12-18T09:39:44;-4.80;99.90
25983;DHT22;13773;48.868;10.730;2022-12-18T09:42:22;-4.60;99.90
25983;DHT22;13773;48.868;10.730;2022-12-18T09:44:53;-4.60;99.90
25983;DHT22;13773;48.868;10.730;2022-12-18T09:47:30;-4.60;99.90
25983;DHT22;13773;48.868;10.730;2022-12-18T09:50:02;-4.60;99.90
25983;DHT22;13773;48.868;10.730;2022-12-18T09:52:33;-4.70;99.90
25983;DHT22;13773;48.868;10.730;2022-12-18T09:57:53;-4.70;99.90
25983;DHT22;13773;48.868;10.730;2022-12-18T10:00:22;-4.70;99.90
25983;DHT22;13773;48.868;10.730;2022-12-18T10:02:50;-4.70;99.90
25983;DHT22;13773;48.868;10.730;2022-12-18T10:05:24;-4.80;99.90
25983;DHT22;13773;48.868;10.730;2022-12-18T10:08:01;-4.80;99.90
25983;DHT22;13773;48.868;10.730;2022-12-18T10:13:45;-4.80;99.90
25983;DHT22;13773;48.868;10.730;2022-12-18T10:25:03;-4.40;99.90
25983;DHT22;13773;48.868;10.730;2022-12-18T10:27:31;-4.50;99.90
25983;DHT22;13773;48.868;10.730;2022-12-18T10:29:57;-4.50;99.90
25983;DHT22;13773;48.868;10.730;2022-12-18T10:32:28;-4.40;99.90
25983;DHT22;13773;48.868;10.730;2022-12-18T10:34:56;-4.30;99.90
25983;DHT22;13773;48.868;10.730;2022-12-18T10:37:24;-4.40;99.90
25983;DHT22;13773;48.868;10.730;2022-12-18T10:40:14;-4.30;99.90
25983;DHT22;13773;48.868;10.730;2022-12-18T10:42:43;-4.20;99.90
25983;DHT22;13773;48.868;10.730;2022-12-18T10:45:16;-4.20;99.90
25983;DHT22;13773;48.868;10.730;2022-12-18T10:47:47;-1.90;99.90
25983;DHT22;13773;48.868;10.730;2022-12-18T10:50:20;-4.30;99.90
25983;DHT22;13773;48.868;10.730;2022-12-18T10:52:56;-4.20;99.90
25983;DHT22;13773;48.868;10.730;2022-12-18T10:55:22;-4.10;99.90
25983;DHT22;13773;48.868;10.730;2022-12-18T10:57:49;-2.50;99.90
25983;DHT22;13773;48.868;10.730;2022-12-18T11:00:30;-4.30;99.90
25983;DHT22;13773;48.868;10.730;2022-12-18T11:02:57;-4.00;99.90
25983;DHT22;13773;48.868;10.730;2022-12-18T11:05:29;-3.90;99.90
25983;DHT22;13773;48.868;10.730;2022-12-18T11:07:56;-4.00;99.90
25983;DHT22;13773;48.868;10.730;2022-12-18T11:10:30;-3.70;99.90
25983;DHT22;13773;48.868;10.730;2022-12-18T11:13:15;-4.00;99.90
25983;DHT22;13773;48.868;10.730;2022-12-18T11:15:42;-3.80;99.90
25983;DHT22;13773;48.868;10.730;2022-12-18T11:21:05;-4.00;99.90
25983;DHT22;13773;48.868;10.730;2022-12-18T11:23:31;-3.70;99.90
25983;DHT22;13773;48.868;10.730;2022-12-18T11:25:59;-3.80;99.90
25983;DHT22;13773;48.868;10.730;2022-12-18T11:33:40;-3.70;99.90
25983;DHT22;13773;48.868;10.730;2022-12-18T11:36:08;-3.60;99.90
25983;DHT22;13773;48.868;10.730;2022-12-18T11:38:40;-3.60;99.90
25983;DHT22;13773;48.868;10.730;2022-12-18T11:43:54;-4.10;99.90
25983;DHT22;13773;48.868;10.730;2022-12-18T11:46:53;-4.00;99.90
25983;DHT22;13773;48.868;10.730;2022-12-18T11:49:33;-3.90;99.90
25983;DHT22;13773;48.868;10.730;2022-12-18T11:52:13;-3.90;99.90
25983;DHT22;13773;48.868;10.730;2022-12-18T11:54:39;-3.80;99.90
25983;DHT22;13773;48.868;10.730;2022-12-18T12:00:15;-3.90;99.90
25983;DHT22;13773;48.868;10.730;2022-12-18T12:05:30;-3.70;99.90
25983;DHT22;13773;48.868;10.730;2022-12-18T12:10:43;-3.70;99.90
25983;DHT22;13773;48.868;10.730;2022-12-18T12:16:01;-3.70;99.90
25983;DHT22;13773;48.868;10.730;2022-12-18T12:34:47;-3.50;99.90
25983;DHT22;13773;48.868;10.730;2022-12-18T12:40:03;-3.20;99.90
25983;DHT22;13773;48.868;10.730;2022-12-18T12:42:39;-3.30;99.90
25983;DHT22;13773;48.868;10.730;2022-12-18T12:45:44;-3.40;99.90
25983;DHT22;13773;48.868;10.730;2022-12-18T12:51:13;-3.40;99.90
25983;DHT22;13773;48.868;10.730;2022-12-18T12:53:40;-3.50;99.90
25983;DHT22;13773;48.868;10.730;2022-12-18T12:56:09;-3.60;99.90
25983;DHT22;13773;48.868;10.730;2022-12-18T12:58:44;-3.60;99.90
25983;DHT22;13773;48.868;10.730;2022-12-18T13:01:34;-3.90;99.90
25983;DHT22;13773;48.868;10.730;2022-12-18T13:06:37;-3.70;99.90
25983;DHT22;13773;48.868;10.730;2022-12-18T13:09:07;-3.80;99.90
25983;DHT22;13773;48.868;10.730;2022-12-18T13:11:36;-3.40;99.90
25983;DHT22;13773;48.868;10.730;2022-12-18T13:14:31;-3.50;99.90
25983;DHT22;13773;48.868;10.730;2022-12-18T13:19:49;-4.00;99.90
25983;DHT22;13773;48.868;10.730;2022-12-18T13:22:28;-4.40;99.90
25983;DHT22;13773;48.868;10.730;2022-12-18T13:24:54;-4.20;99.90
25983;DHT22;13773;48.868;10.730;2022-12-18T13:41:33;-4.10;99.90
25983;DHT22;13773;48.868;10.730;2022-12-18T13:46:55;-4.30;99.90
25983;DHT22;13773;48.868;10.730;2022-12-18T13:49:39;-4.40;99.90
25983;DHT22;13773;48.868;10.730;2022-12-18T13:52:33;-4.30;99.90
25983;DHT22;13773;48.868;10.730;2022-12-18T13:55:03;-4.30;99.90
25983;DHT22;13773;48.868;10.730;2022-12-18T13:57:32;-4.20;99.90
25983;DHT22;13773;48.868;10.730;2022-12-18T14:02:45;-4.30;99.90
25983;DHT22;13773;48.868;10.730;2022-12-18T14:05:26;-4.30;99.90
25983;DHT22;13773;48.868;10.730;2022-12-18T14:07:53;-4.40;99.90
25983;DHT22;13773;48.868;10.730;2022-12-18T14:10:19;-4.70;99.90
25983;DHT22;13773;48.868;10.730;2022-12-18T14:12:48;-4.50;99.90
25983;DHT22;13773;48.868;10.730;2022-12-18T14:17:54;-4.30;99.90
25983;DHT22;13773;48.868;10.730;2022-12-18T14:20:21;-4.10;99.90
25983;DHT22;13773;48.868;10.730;2022-12-18T14:22:48;-4.50;99.90
25983;DHT22;13773;48.868;10.730;2022-12-18T14:27:51;-4.50;99.90
25983;DHT22;13773;48.868;10.730;2022-12-18T14:30:38;-4.60;99.90
25983;DHT22;13773;48.868;10.730;2022-12-18T14:33:19;-4.50;99.90
25983;DHT22;13773;48.868;10.730;2022-12-18T14:35:58;-4.60;99.90
25983;DHT22;13773;48.868;10.730;2022-12-18T14:38:38;-4.60;99.90
25983;DHT22;13773;48.868;10.730;2022-12-18T14:41:06;-4.70;99.90
25983;DHT22;13773;48.868;10.730;2022-12-18T14:43:37;-4.80;99.90
25983;DHT22;13773;48.868;10.730;2022-12-18T14:46:05;-4.60;99.90
25983;DHT22;13773;48.868;10.730;2022-12-18T14:48:38;-4.30;99.90
25983;DHT22;13773;48.868;10.730;2022-12-18T14:51:17;-4.80;99.90
25983;DHT22;13773;48.868;10.730;2022-12-18T14:53:46;-4.80;99.90
25983;DHT22;13773;48.868;10.730;2022-12-18T14:56:33;-4.80;99.90
25983;DHT22;13773;48.868;10.730;2022-12-18T14:59:00;-4.90;99.90
25983;DHT22;13773;48.868;10.730;2022-12-18T15:01:46;-4.90;99.90
25983;DHT22;13773;48.868;10.730;2022-12-18T15:04:31;-5.00;99.90
25983;DHT22;13773;48.868;10.730;2022-12-18T15:07:19;-5.10;99.90
25983;DHT22;13773;48.868;10.730;2022-12-18T15:21:10;-5.10;99.90
25983;DHT22;13773;48.868;10.730;2022-12-18T15:23:52;-5.20;99.90
25983;DHT22;13773;48.868;10.730;2022-12-18T15:26:22;-5.20;99.90
25983;DHT22;13773;48.868;10.730;2022-12-18T15:28:48;-5.20;99.90
25983;DHT22;13773;48.868;10.730;2022-12-18T15:36:15;-5.20;99.90
25983;DHT22;13773;48.868;10.730;2022-12-18T15:38:46;-5.20;99.90
25983;DHT22;13773;48.868;10.730;2022-12-18T15:41:14;-5.10;99.90
25983;DHT22;13773;48.868;10.730;2022-12-18T15:43:40;-4.50;99.90
25983;DHT22;13773;48.868;10.730;2022-12-18T15:46:14;-5.10;99.90
25983;DHT22;13773;48.868;10.730;2022-12-18T15:48:42;-5.20;99.90
25983;DHT22;13773;48.868;10.730;2022-12-18T15:51:29;-5.10;99.90
25983;DHT22;13773;48.868;10.730;2022-12-18T15:54:00;-5.10;99.90
25983;DHT22;13773;48.868;10.730;2022-12-18T15:56:26;-5.20;99.90
25983;DHT22;13773;48.868;10.730;2022-12-18T15:59:15;-5.20;99.90
25983;DHT22;13773;48.868;10.730;2022-12-18T16:01:44;-5.20;99.90
25983;DHT22;13773;48.868;10.730;2022-12-18T16:04:17;-5.30;99.90
25983;DHT22;13773;48.868;10.730;2022-12-18T16:06:43;-5.30;99.90
25983;DHT22;13773;48.868;10.730;2022-12-18T16:09:08;-5.30;99.90
25983;DHT22;13773;48.868;10.730;2022-12-18T16:11:36;-5.40;99.90
25983;DHT22;13773;48.868;10.730;2022-12-18T16:16:44;-5.40;99.90
25983;DHT22;13773;48.868;10.730;2022-12-18T16:19:10;-5.30;99.90
25983;DHT22;13773;48.868;10.730;2022-12-18T16:21:36;-5.40;99.90
25983;DHT22;13773;48.868;10.730;2022-12-18T16:24:02;-5.30;99.90
25983;DHT22;13773;48.868;10.730;2022-12-18T16:26:27;-5.40;99.90
25983;DHT22;13773;48.868;10.730;2022-12-18T16:28:53;-5.40;99.90
25983;DHT22;13773;48.868;10.730;2022-12-18T16:31:19;-5.40;99.90
25983;DHT22;13773;48.868;10.730;2022-12-18T16:33:44;-5.40;99.90
25983;DHT22;13773;48.868;10.730;2022-12-18T16:36:10;-4.70;99.90
25983;DHT22;13773;48.868;10.730;2022-12-18T16:38:36;-5.50;99.90
25983;DHT22;13773;48.868;10.730;2022-12-18T16:41:01;-5.40;99.90
25983;DHT22;13773;48.868;10.730;2022-12-18T16:43:48;-5.40;99.90
25983;DHT22;13773;48.868;10.730;2022-12-18T16:46:14;-5.30;99.90
25983;DHT22;13773;48.868;10.730;2022-12-18T16:48:40;-5.30;99.90
25983;DHT22;13773;48.868;10.730;2022-12-18T16:51:05;-5.40;99.90
25983;DHT22;13773;48.868;10.730;2022-12-18T16:53:32;-5.30;99.90
25983;DHT22;13773;48.868;10.730;2022-12-18T16:55:58;-5.30;99.90
25983;DHT22;13773;48.868;10.730;2022-12-18T16:58:24;-5.30;99.90
25983;DHT22;13773;48.868;10.730;2022-12-18T17:00:49;-5.30;99.90
25983;DHT22;13773;48.868;10.730;2022-12-18T17:03:15;-5.30;99.90
25983;DHT22;13773;48.868;10.730;2022-12-18T17:05:41;-5.30;99.90
25983;DHT22;13773;48.868;10.730;2022-12-18T17:08:06;-5.40;99.90
25983;DHT22;13773;48.868;10.730;2022-12-18T17:10:35;-5.40;99.90
25983;DHT22;13773;48.868;10.730;2022-12-18T17:13:01;-5.30;99.90
25983;DHT22;13773;48.868;10.730;2022-12-18T17:15:26;-5.30;99.90
25983;DHT22;13773;48.868;10.730;2022-12-18T17:17:52;-5.30;99.90
25983;DHT22;13773;48.868;10.730;2022-12-18T17:20:18;-5.30;99.90
25983;DHT22;13773;48.868;10.730;2022-12-18T17:22:43;-5.30;99.90
25983;DHT22;13773;48.868;10.730;2022-12-18T17:25:09;-5.30;99.90
25983;DHT22;13773;48.868;10.730;2022-12-18T17:27:35;-5.30;99.90
25983;DHT22;13773;48.868;10.730;2022-12-18T17:30:03;-5.30;99.90
25983;DHT22;13773;48.868;10.730;2022-12-18T17:32:32;-5.30;99.90
25983;DHT22;13773;48.868;10.730;2022-12-18T17:34:57;-5.30;99.90